Salt Wells, Nevada
Current Conditions -  °F | °C
As of 1:56 AM on Thursday 27 Nov 2014 (Local Time) from KNFL Reporting Station
Clear Clear  
Wind Chill:   Ceiling: Unl
Heat Index:   Visibility: 10mi
Dew Point: -5°   Wind: 3mph
Humidity: 51%   Direction: 70°ENE
Pressure: 30.28"   Gusts: NA
Location:  39.5809°N, 118.333°W
Report Text: KNFL 270956Z AUTO 07003KT 10SM CLR 04/M05 A3028 RMK AO2 SLP214 T00441050
Loading
Personal Weather Stations






























Interactive Weather Map New forecast layout! Learn more

10-Day Weather Forecast

Advertisements
Track Severe Weather on mobile